sensor_id;sensor_type;location;lat;lon;timestamp;P1;durP1;ratioP1;P2;durP2;ratioP2
64887;SDS011;51386;53.082;8.816;2023-11-21T00:01:23;26.87;;;11.30;;
64887;SDS011;51386;53.082;8.816;2023-11-21T00:03:52;24.07;;;10.27;;
64887;SDS011;51386;53.082;8.816;2023-11-21T00:06:22;21.20;;;10.40;;
64887;SDS011;51386;53.082;8.816;2023-11-21T00:08:51;22.30;;;11.63;;
64887;SDS011;51386;53.082;8.816;2023-11-21T00:11:19;19.33;;;10.33;;
64887;SDS011;51386;53.082;8.816;2023-11-21T00:13:47;23.63;;;10.13;;
64887;SDS011;51386;53.082;8.816;2023-11-21T00:16:16;20.33;;;11.97;;
64887;SDS011;51386;53.082;8.816;2023-11-21T00:18:45;26.10;;;12.23;;
64887;SDS011;51386;53.082;8.816;2023-11-21T00:21:14;19.90;;;10.93;;
64887;SDS011;51386;53.082;8.816;2023-11-21T00:23:42;17.77;;;11.10;;
64887;SDS011;51386;53.082;8.816;2023-11-21T00:26:11;26.57;;;11.93;;
64887;SDS011;51386;53.082;8.816;2023-11-21T00:28:39;30.90;;;12.40;;
64887;SDS011;51386;53.082;8.816;2023-11-21T00:31:07;22.13;;;11.30;;
64887;SDS011;51386;53.082;8.816;2023-11-21T00:33:36;16.53;;;10.37;;
64887;SDS011;51386;53.082;8.816;2023-11-21T00:36:05;25.63;;;11.00;;
64887;SDS011;51386;53.082;8.816;2023-11-21T00:38:37;25.10;;;11.63;;
64887;SDS011;51386;53.082;8.816;2023-11-21T00:41:07;25.57;;;11.43;;
64887;SDS011;51386;53.082;8.816;2023-11-21T00:43:35;21.07;;;11.63;;
64887;SDS011;51386;53.082;8.816;2023-11-21T00:46:04;20.77;;;10.97;;
64887;SDS011;51386;53.082;8.816;2023-11-21T00:48:36;17.50;;;9.63;;
64887;SDS011;51386;53.082;8.816;2023-11-21T00:51:04;18.07;;;11.10;;
64887;SDS011;51386;53.082;8.816;2023-11-21T00:53:33;24.63;;;10.83;;
64887;SDS011;51386;53.082;8.816;2023-11-21T00:56:02;17.97;;;10.37;;
64887;SDS011;51386;53.082;8.816;2023-11-21T00:58:30;26.67;;;10.93;;
64887;SDS011;51386;53.082;8.816;2023-11-21T01:00:59;19.53;;;10.87;;
64887;SDS011;51386;53.082;8.816;2023-11-21T01:03:27;24.53;;;11.00;;
64887;SDS011;51386;53.082;8.816;2023-11-21T01:05:55;20.67;;;11.23;;
64887;SDS011;51386;53.082;8.816;2023-11-21T01:08:24;17.23;;;10.37;;
64887;SDS011;51386;53.082;8.816;2023-11-21T01:10:52;23.70;;;12.17;;
64887;SDS011;51386;53.082;8.816;2023-11-21T01:13:21;26.10;;;13.23;;
64887;SDS011;51386;53.082;8.816;2023-11-21T01:15:49;21.50;;;11.93;;
64887;SDS011;51386;53.082;8.816;2023-11-21T01:18:18;24.67;;;12.40;;
64887;SDS011;51386;53.082;8.816;2023-11-21T01:20:46;24.37;;;11.60;;
64887;SDS011;51386;53.082;8.816;2023-11-21T01:23:14;19.57;;;11.67;;
64887;SDS011;51386;53.082;8.816;2023-11-21T01:25:43;21.57;;;12.33;;
64887;SDS011;51386;53.082;8.816;2023-11-21T01:28:11;24.50;;;12.83;;
64887;SDS011;51386;53.082;8.816;2023-11-21T01:30:40;20.50;;;12.07;;
64887;SDS011;51386;53.082;8.816;2023-11-21T01:33:08;21.23;;;12.43;;
64887;SDS011;51386;53.082;8.816;2023-11-21T01:35:37;25.03;;;13.40;;
64887;SDS011;51386;53.082;8.816;2023-11-21T01:38:05;18.70;;;13.33;;
64887;SDS011;51386;53.082;8.816;2023-11-21T01:40:35;22.53;;;14.00;;
64887;SDS011;51386;53.082;8.816;2023-11-21T01:43:04;21.97;;;14.57;;
64887;SDS011;51386;53.082;8.816;2023-11-21T01:45:32;23.53;;;14.37;;
64887;SDS011;51386;53.082;8.816;2023-11-21T01:48:01;23.27;;;15.70;;
64887;SDS011;51386;53.082;8.816;2023-11-21T01:50:31;21.37;;;14.03;;
64887;SDS011;51386;53.082;8.816;2023-11-21T01:52:59;23.93;;;13.93;;
64887;SDS011;51386;53.082;8.816;2023-11-21T01:55:29;18.77;;;12.10;;
64887;SDS011;51386;53.082;8.816;2023-11-21T01:57:57;20.33;;;12.47;;
64887;SDS011;51386;53.082;8.816;2023-11-21T02:00:26;22.90;;;12.17;;
64887;SDS011;51386;53.082;8.816;2023-11-21T02:02:56;17.73;;;10.87;;
64887;SDS011;51386;53.082;8.816;2023-11-21T02:05:26;16.30;;;10.03;;
64887;SDS011;51386;53.082;8.816;2023-11-21T02:07:56;15.00;;;9.40;;
64887;SDS011;51386;53.082;8.816;2023-11-21T02:10:25;15.73;;;11.00;;
64887;SDS011;51386;53.082;8.816;2023-11-21T02:12:53;19.00;;;11.17;;
64887;SDS011;51386;53.082;8.816;2023-11-21T02:15:23;19.83;;;11.63;;
64887;SDS011;51386;53.082;8.816;2023-11-21T02:17:56;17.87;;;11.83;;
64887;SDS011;51386;53.082;8.816;2023-11-21T02:20:26;16.97;;;12.20;;
64887;SDS011;51386;53.082;8.816;2023-11-21T02:22:57;21.03;;;13.10;;
64887;SDS011;51386;53.082;8.816;2023-11-21T02:25:27;15.57;;;11.60;;
64887;SDS011;51386;53.082;8.816;2023-11-21T02:28:01;18.33;;;12.97;;
64887;SDS011;51386;53.082;8.816;2023-11-21T02:30:31;20.33;;;12.73;;
64887;SDS011;51386;53.082;8.816;2023-11-21T02:33:00;19.63;;;13.33;;
64887;SDS011;51386;53.082;8.816;2023-11-21T02:35:29;17.97;;;12.00;;
64887;SDS011;51386;53.082;8.816;2023-11-21T02:37:59;17.83;;;11.67;;
64887;SDS011;51386;53.082;8.816;2023-11-21T02:40:27;17.53;;;12.50;;
64887;SDS011;51386;53.082;8.816;2023-11-21T02:42:57;16.30;;;11.43;;
64887;SDS011;51386;53.082;8.816;2023-11-21T02:45:26;14.43;;;11.57;;
64887;SDS011;51386;53.082;8.816;2023-11-21T02:47:55;14.13;;;11.27;;
64887;SDS011;51386;53.082;8.816;2023-11-21T02:50:25;15.73;;;11.13;;
64887;SDS011;51386;53.082;8.816;2023-11-21T02:52:54;13.90;;;10.30;;
64887;SDS011;51386;53.082;8.816;2023-11-21T02:55:25;14.97;;;10.43;;
64887;SDS011;51386;53.082;8.816;2023-11-21T02:57:55;14.87;;;9.97;;
64887;SDS011;51386;53.082;8.816;2023-11-21T03:00:24;14.30;;;10.57;;
64887;SDS011;51386;53.082;8.816;2023-11-21T03:02:54;15.03;;;11.53;;
64887;SDS011;51386;53.082;8.816;2023-11-21T03:05:24;14.80;;;11.57;;
64887;SDS011;51386;53.082;8.816;2023-11-21T03:07:52;14.63;;;11.17;;
64887;SDS011;51386;53.082;8.816;2023-11-21T03:10:21;14.67;;;11.33;;
64887;SDS011;51386;53.082;8.816;2023-11-21T03:12:49;15.93;;;12.13;;
64887;SDS011;51386;53.082;8.816;2023-11-21T03:15:17;15.13;;;12.23;;
64887;SDS011;51386;53.082;8.816;2023-11-21T03:17:46;17.73;;;13.60;;
64887;SDS011;51386;53.082;8.816;2023-11-21T03:20:17;14.87;;;11.07;;
64887;SDS011;51386;53.082;8.816;2023-11-21T03:22:45;16.73;;;12.23;;
64887;SDS011;51386;53.082;8.816;2023-11-21T03:25:16;19.90;;;13.33;;
64887;SDS011;51386;53.082;8.816;2023-11-21T03:27:44;21.17;;;15.07;;
64887;SDS011;51386;53.082;8.816;2023-11-21T03:30:13;19.60;;;12.70;;
64887;SDS011;51386;53.082;8.816;2023-11-21T03:32:41;16.77;;;12.53;;
64887;SDS011;51386;53.082;8.816;2023-11-21T03:35:10;22.83;;;15.53;;
64887;SDS011;51386;53.082;8.816;2023-11-21T03:37:38;22.23;;;14.30;;
64887;SDS011;51386;53.082;8.816;2023-11-21T03:40:09;21.73;;;14.93;;
64887;SDS011;51386;53.082;8.816;2023-11-21T03:42:38;22.10;;;14.80;;
64887;SDS011;51386;53.082;8.816;2023-11-21T03:45:07;22.87;;;15.30;;
64887;SDS011;51386;53.082;8.816;2023-11-21T03:47:36;22.07;;;15.77;;
64887;SDS011;51386;53.082;8.816;2023-11-21T03:50:05;23.90;;;16.23;;
64887;SDS011;51386;53.082;8.816;2023-11-21T03:52:34;26.60;;;17.43;;
64887;SDS011;51386;53.082;8.816;2023-11-21T03:55:03;26.27;;;15.87;;
64887;SDS011;51386;53.082;8.816;2023-11-21T03:57:31;26.63;;;17.80;;
64887;SDS011;51386;53.082;8.816;2023-11-21T04:00:00;27.20;;;18.13;;
64887;SDS011;51386;53.082;8.816;2023-11-21T04:02:28;27.70;;;18.80;;
64887;SDS011;51386;53.082;8.816;2023-11-21T04:04:57;30.00;;;18.97;;
64887;SDS011;51386;53.082;8.816;2023-11-21T04:07:25;28.10;;;18.73;;
64887;SDS011;51386;53.082;8.816;2023-11-21T04:09:54;32.87;;;20.40;;
64887;SDS011;51386;53.082;8.816;2023-11-21T04:12:22;27.03;;;19.97;;
64887;SDS011;51386;53.082;8.816;2023-11-21T04:14:51;27.37;;;20.33;;
64887;SDS011;51386;53.082;8.816;2023-11-21T04:17:21;29.40;;;21.43;;
64887;SDS011;51386;53.082;8.816;2023-11-21T04:19:49;28.23;;;20.10;;
64887;SDS011;51386;53.082;8.816;2023-11-21T04:22:18;27.87;;;20.30;;
64887;SDS011;51386;53.082;8.816;2023-11-21T04:24:46;25.97;;;19.57;;
64887;SDS011;51386;53.082;8.816;2023-11-21T04:27:15;24.50;;;19.90;;
64887;SDS011;51386;53.082;8.816;2023-11-21T04:29:44;26.37;;;19.33;;
64887;SDS011;51386;53.082;8.816;2023-11-21T04:32:12;27.60;;;20.10;;
64887;SDS011;51386;53.082;8.816;2023-11-21T04:34:40;25.10;;;19.40;;
64887;SDS011;51386;53.082;8.816;2023-11-21T04:37:09;24.33;;;19.70;;
64887;SDS011;51386;53.082;8.816;2023-11-21T04:39:38;25.63;;;19.73;;
64887;SDS011;51386;53.082;8.816;2023-11-21T04:42:06;22.67;;;17.63;;
64887;SDS011;51386;53.082;8.816;2023-11-21T04:44:35;26.03;;;17.90;;
64887;SDS011;51386;53.082;8.816;2023-11-21T04:47:03;24.77;;;17.90;;
64887;SDS011;51386;53.082;8.816;2023-11-21T04:49:32;17.67;;;12.70;;
64887;SDS011;51386;53.082;8.816;2023-11-21T04:52:01;16.83;;;12.27;;
64887;SDS011;51386;53.082;8.816;2023-11-21T04:54:30;14.40;;;12.07;;
64887;SDS011;51386;53.082;8.816;2023-11-21T04:56:59;14.80;;;10.97;;
64887;SDS011;51386;53.082;8.816;2023-11-21T04:59:28;16.93;;;13.07;;
64887;SDS011;51386;53.082;8.816;2023-11-21T05:01:56;18.03;;;12.30;;
64887;SDS011;51386;53.082;8.816;2023-11-21T05:04:24;16.70;;;11.37;;
64887;SDS011;51386;53.082;8.816;2023-11-21T05:06:53;13.73;;;10.70;;
64887;SDS011;51386;53.082;8.816;2023-11-21T05:09:22;14.63;;;9.70;;
64887;SDS011;51386;53.082;8.816;2023-11-21T05:11:50;11.50;;;9.40;;
64887;SDS011;51386;53.082;8.816;2023-11-21T05:14:21;14.60;;;10.53;;
64887;SDS011;51386;53.082;8.816;2023-11-21T05:16:49;12.63;;;10.37;;
64887;SDS011;51386;53.082;8.816;2023-11-21T05:19:21;13.67;;;9.80;;
64887;SDS011;51386;53.082;8.816;2023-11-21T05:21:50;12.93;;;9.53;;
64887;SDS011;51386;53.082;8.816;2023-11-21T05:24:18;12.73;;;9.40;;
64887;SDS011;51386;53.082;8.816;2023-11-21T05:26:47;11.03;;;9.70;;
64887;SDS011;51386;53.082;8.816;2023-11-21T05:29:15;11.90;;;8.60;;
64887;SDS011;51386;53.082;8.816;2023-11-21T05:31:43;9.20;;;7.53;;
64887;SDS011;51386;53.082;8.816;2023-11-21T05:34:12;13.50;;;8.30;;
64887;SDS011;51386;53.082;8.816;2023-11-21T05:36:43;9.30;;;7.47;;
64887;SDS011;51386;53.082;8.816;2023-11-21T05:39:15;9.33;;;7.10;;
64887;SDS011;51386;53.082;8.816;2023-11-21T05:41:44;8.33;;;7.30;;
64887;SDS011;51386;53.082;8.816;2023-11-21T05:44:15;10.50;;;8.23;;
64887;SDS011;51386;53.082;8.816;2023-11-21T05:46:44;8.23;;;7.40;;
64887;SDS011;51386;53.082;8.816;2023-11-21T05:49:12;8.60;;;7.17;;
64887;SDS011;51386;53.082;8.816;2023-11-21T05:51:41;9.03;;;7.80;;
64887;SDS011;51386;53.082;8.816;2023-11-21T05:54:10;9.60;;;7.13;;
64887;SDS011;51386;53.082;8.816;2023-11-21T05:56:38;7.63;;;6.63;;
64887;SDS011;51386;53.082;8.816;2023-11-21T05:59:06;7.60;;;6.73;;
64887;SDS011;51386;53.082;8.816;2023-11-21T06:01:35;9.63;;;7.40;;
64887;SDS011;51386;53.082;8.816;2023-11-21T06:04:06;6.83;;;6.13;;
64887;SDS011;51386;53.082;8.816;2023-11-21T06:06:37;7.67;;;6.87;;
64887;SDS011;51386;53.082;8.816;2023-11-21T06:09:06;8.37;;;6.53;;
64887;SDS011;51386;53.082;8.816;2023-11-21T06:11:36;8.73;;;7.17;;
64887;SDS011;51386;53.082;8.816;2023-11-21T06:14:04;9.57;;;7.87;;
64887;SDS011;51386;53.082;8.816;2023-11-21T06:16:35;8.67;;;6.60;;
64887;SDS011;51386;53.082;8.816;2023-11-21T06:19:04;7.57;;;6.60;;
64887;SDS011;51386;53.082;8.816;2023-11-21T06:21:33;9.40;;;7.53;;
64887;SDS011;51386;53.082;8.816;2023-11-21T06:24:01;8.87;;;7.47;;
64887;SDS011;51386;53.082;8.816;2023-11-21T06:26:30;9.07;;;7.90;;
64887;SDS011;51386;53.082;8.816;2023-11-21T06:28:59;7.87;;;6.97;;
64887;SDS011;51386;53.082;8.816;2023-11-21T06:31:28;9.30;;;6.33;;
64887;SDS011;51386;53.082;8.816;2023-11-21T06:33:58;9.47;;;7.70;;
64887;SDS011;51386;53.082;8.816;2023-11-21T06:36:27;10.20;;;7.30;;
64887;SDS011;51386;53.082;8.816;2023-11-21T06:38:55;8.70;;;7.50;;
64887;SDS011;51386;53.082;8.816;2023-11-21T06:41:24;8.57;;;7.63;;
64887;SDS011;51386;53.082;8.816;2023-11-21T06:43:52;8.20;;;7.17;;
64887;SDS011;51386;53.082;8.816;2023-11-21T06:46:21;9.60;;;7.83;;
64887;SDS011;51386;53.082;8.816;2023-11-21T06:48:49;10.30;;;7.60;;
64887;SDS011;51386;53.082;8.816;2023-11-21T06:51:18;9.13;;;7.83;;
64887;SDS011;51386;53.082;8.816;2023-11-21T06:53:46;11.47;;;9.10;;
64887;SDS011;51386;53.082;8.816;2023-11-21T06:56:15;10.30;;;8.43;;
64887;SDS011;51386;53.082;8.816;2023-11-21T06:58:45;10.33;;;7.73;;
64887;SDS011;51386;53.082;8.816;2023-11-21T07:01:14;9.13;;;7.33;;
64887;SDS011;51386;53.082;8.816;2023-11-21T07:03:42;9.63;;;8.63;;
64887;SDS011;51386;53.082;8.816;2023-11-21T07:06:11;9.20;;;7.63;;
64887;SDS011;51386;53.082;8.816;2023-11-21T07:08:42;8.53;;;7.57;;
64887;SDS011;51386;53.082;8.816;2023-11-21T07:11:11;9.90;;;8.40;;
64887;SDS011;51386;53.082;8.816;2023-11-21T07:13:39;9.90;;;8.57;;
64887;SDS011;51386;53.082;8.816;2023-11-21T07:16:08;11.60;;;8.37;;
64887;SDS011;51386;53.082;8.816;2023-11-21T07:18:37;9.63;;;7.90;;
64887;SDS011;51386;53.082;8.816;2023-11-21T07:21:06;11.87;;;9.00;;
64887;SDS011;51386;53.082;8.816;2023-11-21T07:23:36;8.57;;;7.67;;
64887;SDS011;51386;53.082;8.816;2023-11-21T07:26:04;11.63;;;9.27;;
64887;SDS011;51386;53.082;8.816;2023-11-21T07:28:38;10.90;;;9.07;;
64887;SDS011;51386;53.082;8.816;2023-11-21T07:31:06;10.83;;;9.30;;
64887;SDS011;51386;53.082;8.816;2023-11-21T07:33:35;10.80;;;8.17;;
64887;SDS011;51386;53.082;8.816;2023-11-21T07:36:05;11.60;;;9.43;;
64887;SDS011;51386;53.082;8.816;2023-11-21T07:38:34;10.63;;;8.57;;
64887;SDS011;51386;53.082;8.816;2023-11-21T07:41:03;16.73;;;9.10;;
64887;SDS011;51386;53.082;8.816;2023-11-21T07:43:41;11.27;;;9.63;;
64887;SDS011;51386;53.082;8.816;2023-11-21T07:46:10;9.43;;;8.17;;
64887;SDS011;51386;53.082;8.816;2023-11-21T07:48:42;12.83;;;9.93;;
64887;SDS011;51386;53.082;8.816;2023-11-21T07:51:11;10.37;;;8.33;;
64887;SDS011;51386;53.082;8.816;2023-11-21T07:53:40;10.47;;;9.07;;
64887;SDS011;51386;53.082;8.816;2023-11-21T07:56:09;10.37;;;8.43;;
64887;SDS011;51386;53.082;8.816;2023-11-21T07:58:37;10.90;;;8.80;;
64887;SDS011;51386;53.082;8.816;2023-11-21T08:01:06;9.67;;;8.07;;
64887;SDS011;51386;53.082;8.816;2023-11-21T08:03:35;11.87;;;8.97;;
64887;SDS011;51386;53.082;8.816;2023-11-21T08:06:04;10.97;;;7.80;;
64887;SDS011;51386;53.082;8.816;2023-11-21T08:08:33;11.10;;;9.03;;
64887;SDS011;51386;53.082;8.816;2023-11-21T08:11:01;10.60;;;8.80;;
64887;SDS011;51386;53.082;8.816;2023-11-21T08:13:31;11.87;;;8.03;;
64887;SDS011;51386;53.082;8.816;2023-11-21T08:16:00;11.70;;;9.17;;
64887;SDS011;51386;53.082;8.816;2023-11-21T08:18:32;9.73;;;8.57;;
64887;SDS011;51386;53.082;8.816;2023-11-21T08:21:01;10.27;;;7.87;;
64887;SDS011;51386;53.082;8.816;2023-11-21T08:23:30;13.23;;;10.80;;
64887;SDS011;51386;53.082;8.816;2023-11-21T08:25:59;14.03;;;11.57;;
64887;SDS011;51386;53.082;8.816;2023-11-21T08:28:31;12.60;;;9.20;;
64887;SDS011;51386;53.082;8.816;2023-11-21T08:31:00;11.30;;;9.17;;
64887;SDS011;51386;53.082;8.816;2023-11-21T08:33:29;11.23;;;9.03;;
64887;SDS011;51386;53.082;8.816;2023-11-21T08:35:57;11.83;;;9.00;;
64887;SDS011;51386;53.082;8.816;2023-11-21T08:38:26;10.63;;;9.07;;
64887;SDS011;51386;53.082;8.816;2023-11-21T08:40:56;11.40;;;8.97;;
64887;SDS011;51386;53.082;8.816;2023-11-21T08:43:24;11.57;;;9.13;;
64887;SDS011;51386;53.082;8.816;2023-11-21T08:45:55;9.90;;;8.53;;
64887;SDS011;51386;53.082;8.816;2023-11-21T08:48:23;11.53;;;8.47;;
64887;SDS011;51386;53.082;8.816;2023-11-21T08:50:51;13.93;;;10.83;;
64887;SDS011;51386;53.082;8.816;2023-11-21T08:53:20;10.47;;;8.43;;
64887;SDS011;51386;53.082;8.816;2023-11-21T08:55:49;13.80;;;9.13;;
64887;SDS011;51386;53.082;8.816;2023-11-21T08:58:17;11.20;;;8.27;;
64887;SDS011;51386;53.082;8.816;2023-11-21T09:00:46;10.87;;;8.93;;
64887;SDS011;51386;53.082;8.816;2023-11-21T09:03:14;28.77;;;20.93;;
64887;SDS011;51386;53.082;8.816;2023-11-21T09:05:43;11.70;;;9.20;;
64887;SDS011;51386;53.082;8.816;2023-11-21T09:08:12;12.83;;;8.40;;
64887;SDS011;51386;53.082;8.816;2023-11-21T09:10:40;12.13;;;8.33;;
64887;SDS011;51386;53.082;8.816;2023-11-21T09:13:10;9.83;;;8.60;;
64887;SDS011;51386;53.082;8.816;2023-11-21T09:15:39;10.50;;;8.40;;
64887;SDS011;51386;53.082;8.816;2023-11-21T09:18:08;12.17;;;8.97;;
64887;SDS011;51386;53.082;8.816;2023-11-21T09:20:38;10.43;;;8.67;;
64887;SDS011;51386;53.082;8.816;2023-11-21T09:23:06;10.53;;;8.00;;
64887;SDS011;51386;53.082;8.816;2023-11-21T09:25:35;13.90;;;8.63;;
64887;SDS011;51386;53.082;8.816;2023-11-21T09:28:05;11.10;;;9.83;;
64887;SDS011;51386;53.082;8.816;2023-11-21T09:30:36;10.37;;;8.53;;
64887;SDS011;51386;53.082;8.816;2023-11-21T09:33:04;8.57;;;7.70;;
64887;SDS011;51386;53.082;8.816;2023-11-21T09:35:34;9.50;;;8.40;;
64887;SDS011;51386;53.082;8.816;2023-11-21T09:38:02;20.17;;;15.17;;
64887;SDS011;51386;53.082;8.816;2023-11-21T09:40:33;14.03;;;10.27;;
64887;SDS011;51386;53.082;8.816;2023-11-21T09:43:01;16.77;;;9.50;;
64887;SDS011;51386;53.082;8.816;2023-11-21T09:45:50;9.47;;;7.20;;
64887;SDS011;51386;53.082;8.816;2023-11-21T09:48:28;8.60;;;7.70;;
64887;SDS011;51386;53.082;8.816;2023-11-21T09:50:58;9.40;;;8.40;;
64887;SDS011;51386;53.082;8.816;2023-11-21T09:53:31;9.83;;;8.47;;
64887;SDS011;51386;53.082;8.816;2023-11-21T09:56:02;10.17;;;8.80;;
64887;SDS011;51386;53.082;8.816;2023-11-21T09:58:31;8.43;;;7.63;;
64887;SDS011;51386;53.082;8.816;2023-11-21T10:01:02;15.37;;;8.30;;
64887;SDS011;51386;53.082;8.816;2023-11-21T10:03:37;10.07;;;8.00;;
64887;SDS011;51386;53.082;8.816;2023-11-21T10:06:06;12.70;;;8.40;;
64887;SDS011;51386;53.082;8.816;2023-11-21T10:08:36;10.33;;;7.83;;
64887;SDS011;51386;53.082;8.816;2023-11-21T10:11:18;8.37;;;6.87;;
64887;SDS011;51386;53.082;8.816;2023-11-21T10:13:53;9.20;;;7.20;;
64887;SDS011;51386;53.082;8.816;2023-11-21T10:16:25;8.63;;;7.53;;
64887;SDS011;51386;53.082;8.816;2023-11-21T10:18:55;9.10;;;7.93;;
64887;SDS011;51386;53.082;8.816;2023-11-21T10:21:39;7.93;;;6.57;;
64887;SDS011;51386;53.082;8.816;2023-11-21T10:24:08;8.73;;;7.80;;
64887;SDS011;51386;53.082;8.816;2023-11-21T10:26:36;9.17;;;8.27;;
64887;SDS011;51386;53.082;8.816;2023-11-21T10:29:18;12.07;;;8.43;;
64887;SDS011;51386;53.082;8.816;2023-11-21T10:31:51;12.07;;;8.17;;
64887;SDS011;51386;53.082;8.816;2023-11-21T10:34:22;11.83;;;9.20;;
64887;SDS011;51386;53.082;8.816;2023-11-21T10:36:51;9.07;;;8.10;;
64887;SDS011;51386;53.082;8.816;2023-11-21T10:39:19;10.47;;;8.17;;
64887;SDS011;51386;53.082;8.816;2023-11-21T10:41:52;10.17;;;7.97;;
64887;SDS011;51386;53.082;8.816;2023-11-21T10:44:24;9.80;;;8.07;;
64887;SDS011;51386;53.082;8.816;2023-11-21T10:46:54;8.80;;;7.87;;
64887;SDS011;51386;53.082;8.816;2023-11-21T10:49:28;8.23;;;7.20;;
64887;SDS011;51386;53.082;8.816;2023-11-21T10:51:56;9.07;;;7.87;;
64887;SDS011;51386;53.082;8.816;2023-11-21T10:54:25;13.53;;;10.73;;
64887;SDS011;51386;53.082;8.816;2023-11-21T10:56:57;13.20;;;9.47;;
64887;SDS011;51386;53.082;8.816;2023-11-21T10:59:28;12.80;;;9.00;;
64887;SDS011;51386;53.082;8.816;2023-11-21T11:01:59;8.33;;;7.43;;
64887;SDS011;51386;53.082;8.816;2023-11-21T11:05:00;8.73;;;7.83;;
64887;SDS011;51386;53.082;8.816;2023-11-21T11:07:31;13.57;;;11.97;;
64887;SDS011;51386;53.082;8.816;2023-11-21T11:10:04;10.50;;;8.90;;
64887;SDS011;51386;53.082;8.816;2023-11-21T11:12:35;8.93;;;8.03;;
64887;SDS011;51386;53.082;8.816;2023-11-21T11:15:08;10.47;;;8.33;;
64887;SDS011;51386;53.082;8.816;2023-11-21T11:17:42;21.43;;;16.77;;
64887;SDS011;51386;53.082;8.816;2023-11-21T11:20:33;8.83;;;7.90;;
64887;SDS011;51386;53.082;8.816;2023-11-21T11:23:23;7.87;;;7.07;;
64887;SDS011;51386;53.082;8.816;2023-11-21T11:29:14;7.90;;;6.90;;
64887;SDS011;51386;53.082;8.816;2023-11-21T11:32:05;14.17;;;8.63;;
64887;SDS011;51386;53.082;8.816;2023-11-21T11:37:53;10.73;;;8.13;;
64887;SDS011;51386;53.082;8.816;2023-11-21T11:40:22;9.70;;;8.67;;
64887;SDS011;51386;53.082;8.816;2023-11-21T11:42:55;10.00;;;7.40;;
64887;SDS011;51386;53.082;8.816;2023-11-21T11:45:33;9.17;;;7.50;;
64887;SDS011;51386;53.082;8.816;2023-11-21T11:48:04;12.40;;;6.70;;
64887;SDS011;51386;53.082;8.816;2023-11-21T11:50:33;9.17;;;7.00;;
64887;SDS011;51386;53.082;8.816;2023-11-21T11:53:12;9.97;;;6.77;;
64887;SDS011;51386;53.082;8.816;2023-11-21T11:55:42;9.13;;;6.10;;
64887;SDS011;51386;53.082;8.816;2023-11-21T11:58:11;9.97;;;6.23;;
64887;SDS011;51386;53.082;8.816;2023-11-21T12:00:40;9.07;;;6.90;;
64887;SDS011;51386;53.082;8.816;2023-11-21T12:03:10;8.70;;;6.03;;
64887;SDS011;51386;53.082;8.816;2023-11-21T12:05:39;7.43;;;6.57;;
64887;SDS011;51386;53.082;8.816;2023-11-21T12:08:11;7.37;;;5.87;;
64887;SDS011;51386;53.082;8.816;2023-11-21T12:10:40;25.23;;;18.20;;
64887;SDS011;51386;53.082;8.816;2023-11-21T12:13:09;7.20;;;6.50;;
64887;SDS011;51386;53.082;8.816;2023-11-21T12:15:39;7.20;;;6.50;;
64887;SDS011;51386;53.082;8.816;2023-11-21T12:18:09;6.77;;;5.67;;
64887;SDS011;51386;53.082;8.816;2023-11-21T12:20:37;8.00;;;6.07;;
64887;SDS011;51386;53.082;8.816;2023-11-21T12:23:10;7.20;;;6.17;;
64887;SDS011;51386;53.082;8.816;2023-11-21T12:25:39;8.97;;;5.73;;
64887;SDS011;51386;53.082;8.816;2023-11-21T12:28:09;6.70;;;5.80;;
64887;SDS011;51386;53.082;8.816;2023-11-21T12:30:38;8.60;;;5.50;;
64887;SDS011;51386;53.082;8.816;2023-11-21T12:33:07;6.30;;;4.93;;
64887;SDS011;51386;53.082;8.816;2023-11-21T12:35:37;5.27;;;4.57;;
64887;SDS011;51386;53.082;8.816;2023-11-21T12:38:05;7.07;;;5.67;;
64887;SDS011;51386;53.082;8.816;2023-11-21T12:40:36;7.27;;;5.20;;
64887;SDS011;51386;53.082;8.816;2023-11-21T12:43:06;6.10;;;5.33;;
64887;SDS011;51386;53.082;8.816;2023-11-21T12:45:35;7.57;;;4.60;;
64887;SDS011;51386;53.082;8.816;2023-11-21T12:48:05;7.00;;;5.07;;
64887;SDS011;51386;53.082;8.816;2023-11-21T12:50:38;4.53;;;4.07;;
64887;SDS011;51386;53.082;8.816;2023-11-21T12:53:07;6.40;;;5.23;;
64887;SDS011;51386;53.082;8.816;2023-11-21T12:55:44;6.33;;;4.80;;
64887;SDS011;51386;53.082;8.816;2023-11-21T12:58:17;5.77;;;4.60;;
64887;SDS011;51386;53.082;8.816;2023-11-21T13:00:48;8.37;;;4.57;;
64887;SDS011;51386;53.082;8.816;2023-11-21T13:03:19;5.00;;;4.43;;
64887;SDS011;51386;53.082;8.816;2023-11-21T13:05:53;4.17;;;3.40;;
64887;SDS011;51386;53.082;8.816;2023-11-21T13:08:23;3.87;;;3.53;;
64887;SDS011;51386;53.082;8.816;2023-11-21T13:10:54;4.83;;;3.60;;
64887;SDS011;51386;53.082;8.816;2023-11-21T13:13:33;4.60;;;3.83;;
64887;SDS011;51386;53.082;8.816;2023-11-21T13:16:13;4.60;;;3.30;;
64887;SDS011;51386;53.082;8.816;2023-11-21T13:18:43;4.63;;;4.13;;
64887;SDS011;51386;53.082;8.816;2023-11-21T13:21:11;6.07;;;4.70;;
64887;SDS011;51386;53.082;8.816;2023-11-21T13:23:44;6.73;;;5.27;;
64887;SDS011;51386;53.082;8.816;2023-11-21T13:26:14;3.70;;;3.03;;
64887;SDS011;51386;53.082;8.816;2023-11-21T13:28:43;4.80;;;2.80;;
64887;SDS011;51386;53.082;8.816;2023-11-21T13:31:14;3.03;;;2.73;;
64887;SDS011;51386;53.082;8.816;2023-11-21T13:34:03;3.77;;;3.03;;
64887;SDS011;51386;53.082;8.816;2023-11-21T13:36:36;6.70;;;3.43;;
64887;SDS011;51386;53.082;8.816;2023-11-21T13:39:04;3.00;;;2.70;;
64887;SDS011;51386;53.082;8.816;2023-11-21T13:41:35;3.93;;;3.07;;
64887;SDS011;51386;53.082;8.816;2023-11-21T13:44:05;6.10;;;3.40;;
64887;SDS011;51386;53.082;8.816;2023-11-21T13:46:45;3.23;;;2.90;;
64887;SDS011;51386;53.082;8.816;2023-11-21T13:49:14;9.17;;;3.87;;
64887;SDS011;51386;53.082;8.816;2023-11-21T13:51:43;3.97;;;3.00;;
64887;SDS011;51386;53.082;8.816;2023-11-21T13:54:15;3.23;;;2.93;;
64887;SDS011;51386;53.082;8.816;2023-11-21T13:56:43;2.90;;;2.60;;
64887;SDS011;51386;53.082;8.816;2023-11-21T13:59:14;3.87;;;2.77;;
64887;SDS011;51386;53.082;8.816;2023-11-21T14:01:50;2.93;;;2.63;;
64887;SDS011;51386;53.082;8.816;2023-11-21T14:04:22;3.30;;;3.00;;
64887;SDS011;51386;53.082;8.816;2023-11-21T14:06:58;6.83;;;5.43;;
64887;SDS011;51386;53.082;8.816;2023-11-21T14:09:28;4.77;;;3.07;;
64887;SDS011;51386;53.082;8.816;2023-11-21T14:12:11;7.83;;;3.87;;
64887;SDS011;51386;53.082;8.816;2023-11-21T14:14:43;4.80;;;3.43;;
64887;SDS011;51386;53.082;8.816;2023-11-21T14:17:16;10.53;;;7.73;;
64887;SDS011;51386;53.082;8.816;2023-11-21T14:19:45;6.20;;;4.60;;
64887;SDS011;51386;53.082;8.816;2023-11-21T14:22:13;6.37;;;4.50;;
64887;SDS011;51386;53.082;8.816;2023-11-21T14:24:41;13.67;;;11.07;;
64887;SDS011;51386;53.082;8.816;2023-11-21T14:27:14;44.10;;;34.47;;
64887;SDS011;51386;53.082;8.816;2023-11-21T14:29:45;4.23;;;3.60;;
64887;SDS011;51386;53.082;8.816;2023-11-21T14:32:26;3.43;;;3.10;;
64887;SDS011;51386;53.082;8.816;2023-11-21T14:34:54;6.13;;;4.03;;
64887;SDS011;51386;53.082;8.816;2023-11-21T14:37:23;3.83;;;3.40;;
64887;SDS011;51386;53.082;8.816;2023-11-21T14:39:51;4.37;;;3.00;;
64887;SDS011;51386;53.082;8.816;2023-11-21T14:42:19;5.57;;;2.67;;
64887;SDS011;51386;53.082;8.816;2023-11-21T14:44:52;3.33;;;2.20;;
64887;SDS011;51386;53.082;8.816;2023-11-21T14:47:24;3.90;;;2.80;;
64887;SDS011;51386;53.082;8.816;2023-11-21T14:49:54;3.20;;;2.27;;
64887;SDS011;51386;53.082;8.816;2023-11-21T14:52:27;7.97;;;3.50;;
64887;SDS011;51386;53.082;8.816;2023-11-21T14:55:05;3.13;;;2.83;;
64887;SDS011;51386;53.082;8.816;2023-11-21T14:57:59;4.60;;;2.60;;
64887;SDS011;51386;53.082;8.816;2023-11-21T15:00:31;4.57;;;2.47;;